CheckWX is a tool to help pilots better visualize weather data.  It is not intended as a substitute for an official pre-flight weather briefing.

05:22:48 UTC

KORL METAR
Orlando Executive Airport
Orlando, Florida, USA
Current

30 mins ago

KORL 200453Z AUTO 13008KT 10SM CLR 22/20 A3017 RMK AO2 SLP219 T02170200 403000183
Observed
Feb-20 @ 04:53 UTC
Wind
  • 130° at 8 KTS
Visibility
16,093 meters
Flight Rules
VFR
Cloud Levels
  • Clear skies
Temperature
22°C / 72°F
Dewpoint
20°C / 68°F
Humidity
88%
Altimeter
30.17" Hg
Pressure
1021.9 hPa
Previous

1 hour ago

KORL 200353Z AUTO 11007KT 10SM CLR 22/20 A3018 RMK AO2 SLP223 T02220200
Observed
Feb-20 @ 03:53 UTC
Wind
  • 110° at 7 KTS
Visibility
16,093 meters
Flight Rules
VFR
Cloud Levels
  • Clear skies
Temperature
22°C / 72°F
Dewpoint
20°C / 68°F
Humidity
88%
Altimeter
30.18" Hg
Pressure
1022.3 hPa
Previous

2 hours ago

KORL 200253Z AUTO 11008KT 10SM CLR 22/20 A3018 RMK AO2 SLP224 T02220200 51016
Observed
Feb-20 @ 02:53 UTC
Wind
  • 110° at 8 KTS
Visibility
16,093 meters
Flight Rules
VFR
Cloud Levels
  • Clear skies
Temperature
22°C / 72°F
Dewpoint
20°C / 68°F
Humidity
88%
Altimeter
30.18" Hg
Pressure
1022.4 hPa